Alma, Michigan
Current Conditions -  °F | °C
As of 7:54 AM on Saturday 25 Oct 2014 (Local Time) from KAMN Reporting Station
Haze Haze  
Wind Chill: 51°   Ceiling: 1100
Heat Index: 51°   Visibility: 5mi
Dew Point: 49°   Wind: 8mph
Humidity: 92%   Direction: 220°SW
Pressure: 29.8"   Gusts: NA
Location:  43.38°N, 84.66°W
Report Text: KAMN 251154Z AUTO 22007KT 5SM BR OVC011 11/09 A2980 RMK AO2 T01060094
Loading
Personal Weather Stations






























Interactive Weather Map
Tropical Storm Tracking
New forecast layout! Learn more

10-Day Weather Forecast

Advertisements
Track Severe Weather on mobile